Αρχική σελίδα
METAR-TAF:

METAR-TAF

Αεροδρόμια :

Ντακάρ, Σενεγάλη

γεωγραφικό πλάτος: 14-44N, γεωγραφικό μήκος: 017-30W, υψόμετρο: 27 μ

Παρών καιρός

Η αναφορά έγινε 33 λεπτά πριν, στις 23:00 UTC
Άνεμος 6 kt από Β
Θερμοκρασία 27°C
Υγρασία 89%
Πίεση 1012 hPa
Ορατότητα: 8000 μ

METAR: GOOY 212300Z 36006KT 8000 NSC 27/25 Q1012

Χρόνος: 23:33 (23:33 UTC)

Πρόγνωση Καιρού

Η αναφορά έγινε 6 ώρες και 3 λεπτά πριν, στις 17:30 UTC
Η πρόγνωση ισχύει από τις 21 στις 18 UTC έως τις 22 στις 24 UTC
Άνεμος 8 kt από Β
Ορατότητα 10 χλμ και άνω
Δεν υπάρχουν νέφη με βάση κάτω από τα 1500 μ. και δεν υπάρχουν νέφη σωρειτομελανίτες.

TAF: GOOY 211730Z 2118/2224 35008KT CAVOK

Μετεωρολογικές αναφορές και προγνώσεις για περισσότερα από 4000 αεροδρόμια (δελτία METAR και TAF).

Οι διαθέσιμοι σταθμοί απεικονίζονται στο χάρτη με κίτρινες και κόκκινες κουκκίδες.

Μετακινήστε το ποντίκι πάνω από τις κουκκίδες για να δείτε το όνομα του σταθμού.

Στη συνέχεια, κάντε κλικ για να δείτε τις μετεωρολογικές αναφορές και τις προγνώσεις καιρού.

Για να αλλάξετε το χάρτη: κάντε κλικ στα πράσινα κουμπιά με τον μαύρο σταυρό για να ζουμάρετε, στο πράσινο κουμπί με την παύλα για να αφαιρέσετε το ζουμ ή στα πράσινα βέλη για να αντιπαραβάλλετε χάρτες.


METAR-TAF: